Terminal Aerodrome Forecast
Issued by NWS Grand Forks, ND

Home | Current Version | Previous Version | Graphics & Text | Print | Product List | Glossary On
Versions: 1 2 3 4 5 6 7 8 9 10 11 12 13 14 15 16 17
000
FTUS43 KFGF 302300 RRA
TAFFAR
TAF
KFAR 302341Z 0100/0124 13013G20KT P6SM BKN025
     FM010100 14013G20KT P6SM VCSH BKN025
     FM010300 16014G20KT P6SM BKN025
     FM011000 18013G18KT P6SM BKN015
     FM011500 24015G23KT P6SM BKN025
     FM011800 26015G23KT P6SM BKN050=

USA.gov is the U.S. government's official web portal to all federal, state and local government web resources and services.